createdAt,value
2023-04-26T00:00:29.595Z,12.77
2023-04-26T00:02:58.112Z,12.45
2023-04-26T00:05:27.352Z,12.09
2023-04-26T00:07:55.619Z,11.51
2023-04-26T00:10:23.972Z,11.56
2023-04-26T00:12:52.463Z,11.78
2023-04-26T00:15:20.808Z,11.57
2023-04-26T00:17:50.934Z,11.90
2023-04-26T00:20:19.488Z,11.84
2023-04-26T00:22:47.896Z,11.86
2023-04-26T00:25:16.185Z,12.07
2023-04-26T00:27:44.509Z,12.17
2023-04-26T00:30:13.618Z,11.90
2023-04-26T00:32:41.898Z,12.17
2023-04-26T00:35:12.175Z,12.32
2023-04-26T00:37:40.482Z,12.32
2023-04-26T00:40:10.615Z,12.47
2023-04-26T00:42:40.020Z,12.47
2023-04-26T00:45:09.723Z,12.52
2023-04-26T00:47:38.322Z,12.29
2023-04-26T00:50:10.676Z,12.06
2023-04-26T00:52:40.874Z,11.73
2023-04-26T00:55:10.392Z,12.06
2023-04-26T00:57:39.065Z,12.04
2023-04-26T01:00:08.806Z,11.91
2023-04-26T01:02:37.915Z,11.93
2023-04-26T01:05:07.148Z,12.19
2023-04-26T01:07:36.730Z,12.41
2023-04-26T01:10:07.191Z,12.17
2023-04-26T01:12:35.472Z,11.63
2023-04-26T01:15:05.465Z,11.62
2023-04-26T01:17:33.955Z,11.72
2023-04-26T01:20:02.425Z,11.92
2023-04-26T01:22:36.477Z,12.13
2023-04-26T01:25:09.150Z,12.12
2023-04-26T01:27:37.538Z,12.08
2023-04-26T01:30:06.456Z,12.35
2023-04-26T01:32:35.106Z,12.28
2023-04-26T01:35:03.534Z,12.41
2023-04-26T01:37:31.750Z,12.09
2023-04-26T01:40:01.454Z,11.34
2023-04-26T01:42:29.809Z,11.09
2023-04-26T01:44:57.997Z,10.66
2023-04-26T01:47:26.626Z,10.69
2023-04-26T01:49:55.092Z,10.76
2023-04-26T01:52:24.193Z,10.79
2023-04-26T01:54:52.568Z,11.26
2023-04-26T01:57:22.258Z,11.02
2023-04-26T01:59:50.478Z,11.18
2023-04-26T02:02:19.178Z,11.20
2023-04-26T02:04:47.490Z,11.06
2023-04-26T02:07:15.811Z,10.85
2023-04-26T02:09:44.107Z,10.70
2023-04-26T02:12:12.361Z,10.34
2023-04-26T02:14:42.049Z,10.48
2023-04-26T02:17:11.406Z,11.26
2023-04-26T02:19:39.707Z,11.41
2023-04-26T02:22:08.117Z,11.73
2023-04-26T02:24:36.351Z,11.92
2023-04-26T02:27:05.641Z,11.67
2023-04-26T02:29:42.829Z,12.15
2023-04-26T02:32:13.707Z,11.75
2023-04-26T02:34:41.915Z,11.84
2023-04-26T02:37:10.268Z,11.92
2023-04-26T02:39:38.632Z,11.89
2023-04-26T02:42:10.498Z,12.04
2023-04-26T02:44:39.873Z,11.89
2023-04-26T02:47:08.541Z,11.45
2023-04-26T02:49:38.255Z,11.32
2023-04-26T02:52:06.623Z,11.82
2023-04-26T02:54:35.036Z,11.45
2023-04-26T02:57:03.956Z,10.88
2023-04-26T02:59:32.627Z,11.52
2023-04-26T03:02:00.925Z,11.67
2023-04-26T03:04:30.362Z,12.02
2023-04-26T03:07:00.058Z,11.74
2023-04-26T03:09:28.412Z,11.13
2023-04-26T03:11:56.706Z,11.19
2023-04-26T03:14:25.150Z,11.74
2023-04-26T03:16:53.716Z,11.92
2023-04-26T03:19:22.227Z,11.72
2023-04-26T03:21:50.543Z,12.01
2023-04-26T03:24:20.234Z,12.21
2023-04-26T03:26:48.536Z,12.23
2023-04-26T03:29:18.293Z,12.20
2023-04-26T03:31:46.559Z,12.19
2023-04-26T03:34:14.828Z,12.02
2023-04-26T03:36:43.098Z,11.81
2023-04-26T03:39:11.702Z,12.26
2023-04-26T03:41:41.399Z,12.56
2023-04-26T03:44:09.871Z,11.79
2023-04-26T03:46:38.236Z,11.83
2023-04-26T03:49:06.560Z,11.17
2023-04-26T03:51:34.792Z,10.86
2023-04-26T03:54:03.873Z,10.43
2023-04-26T03:56:32.205Z,10.80
2023-04-26T03:59:02.119Z,10.86
2023-04-26T04:01:30.423Z,11.48
2023-04-26T04:03:58.939Z,11.48
2023-04-26T04:06:28.236Z,11.24
2023-04-26T04:08:56.560Z,11.03
2023-04-26T04:11:24.810Z,11.70
2023-04-26T04:13:53.156Z,11.87
2023-04-26T04:16:22.982Z,12.00
2023-04-26T04:18:51.455Z,11.80
2023-04-26T04:21:19.850Z,11.85
2023-04-26T04:23:48.578Z,11.78
2023-04-26T04:26:17.622Z,11.42
2023-04-26T04:28:47.406Z,11.43
2023-04-26T04:31:16.133Z,11.63
2023-04-26T04:33:45.909Z,11.71
2023-04-26T04:36:16.970Z,11.56
2023-04-26T04:38:45.339Z,12.05
2023-04-26T04:41:14.587Z,12.05
2023-04-26T04:43:42.912Z,11.98
2023-04-26T04:46:12.734Z,12.59
2023-04-26T04:48:41.655Z,13.02
2023-04-26T04:51:12.154Z,12.50
2023-04-26T04:53:40.515Z,11.98
2023-04-26T04:56:09.174Z,11.84
2023-04-26T04:58:37.490Z,12.16
2023-04-26T05:01:06.208Z,12.65
2023-04-26T05:03:35.152Z,12.17
2023-04-26T05:06:03.927Z,12.01
2023-04-26T05:08:33.628Z,12.02
2023-04-26T05:11:01.986Z,12.36
2023-04-26T05:13:30.291Z,12.77
2023-04-26T05:15:58.571Z,12.41
2023-04-26T05:18:27.437Z,12.62
2023-04-26T05:20:55.710Z,12.67
2023-04-26T05:23:23.971Z,12.75
2023-04-26T05:25:53.754Z,12.47
2023-04-26T05:28:22.096Z,12.59
2023-04-26T05:30:50.742Z,12.66
2023-04-26T05:33:19.185Z,12.44
2023-04-26T05:35:47.535Z,12.59
2023-04-26T05:38:15.922Z,12.36
2023-04-26T05:40:44.200Z,12.51
2023-04-26T05:43:13.869Z,12.23
2023-04-26T05:45:42.368Z,12.19
2023-04-26T05:48:10.807Z,12.54
2023-04-26T05:50:40.082Z,12.52
2023-04-26T05:53:08.427Z,13.17
2023-04-26T05:55:36.819Z,12.64
2023-04-26T05:58:05.267Z,13.15
2023-04-26T06:00:35.150Z,13.14
2023-04-26T06:03:03.695Z,13.27
2023-04-26T06:05:32.584Z,13.23
2023-04-26T06:08:01.696Z,12.94
2023-04-26T06:10:30.050Z,12.99
2023-04-26T06:12:58.438Z,13.14
2023-04-26T06:15:27.919Z,13.29
2023-04-26T06:17:57.684Z,13.16
2023-04-26T06:20:25.957Z,13.21
2023-04-26T06:22:54.649Z,13.37
2023-04-26T06:25:22.950Z,13.73
2023-04-26T06:27:51.268Z,13.44
2023-04-26T06:30:19.705Z,13.48
2023-04-26T06:32:47.970Z,13.61
2023-04-26T06:35:17.916Z,13.22
2023-04-26T06:37:46.262Z,13.23
2023-04-26T06:40:16.051Z,13.24
2023-04-26T06:42:44.403Z,13.47
2023-04-26T06:45:14.201Z,13.15
2023-04-26T06:47:42.591Z,13.05
2023-04-26T06:50:12.138Z,13.51
2023-04-26T06:52:41.792Z,12.65
2023-04-26T06:55:11.203Z,13.11
2023-04-26T06:57:39.563Z,13.56
2023-04-26T07:00:11.520Z,13.69
2023-04-26T07:02:39.966Z,13.34
2023-04-26T07:05:08.988Z,13.62
2023-04-26T07:07:37.357Z,13.83
2023-04-26T07:10:08.451Z,14.25
2023-04-26T07:12:36.811Z,14.13
2023-04-26T07:15:06.792Z,14.27
2023-04-26T07:17:35.137Z,14.09
2023-04-26T07:20:04.275Z,14.77
2023-04-26T07:22:32.521Z,15.07
2023-04-26T07:25:01.143Z,15.27
2023-04-26T07:27:31.753Z,14.98
2023-04-26T07:30:00.072Z,15.43
2023-04-26T07:32:28.678Z,15.51
2023-04-26T07:34:57.375Z,14.18
2023-04-26T07:37:25.749Z,13.87
2023-04-26T07:39:54.113Z,13.99
2023-04-26T07:42:22.424Z,13.80
2023-04-26T07:44:52.138Z,14.10
2023-04-26T07:47:20.404Z,14.19
2023-04-26T07:49:48.818Z,14.43
2023-04-26T07:52:17.056Z,14.79
2023-04-26T07:54:47.262Z,14.92
2023-04-26T07:57:15.655Z,14.53
2023-04-26T07:59:44.925Z,15.31
2023-04-26T08:02:14.727Z,15.55
2023-04-26T08:04:49.911Z,15.28
2023-04-26T08:07:18.348Z,14.81
2023-04-26T08:09:46.820Z,14.83
2023-04-26T08:12:15.348Z,14.72
2023-04-26T08:14:43.757Z,15.15
2023-04-26T08:17:12.496Z,14.23
2023-04-26T08:19:42.272Z,15.08
2023-04-26T08:22:10.582Z,15.28
2023-04-26T08:24:38.861Z,15.51
2023-04-26T08:27:07.151Z,15.23
2023-04-26T08:29:35.512Z,14.82
2023-04-26T08:32:03.891Z,14.49
2023-04-26T08:34:32.219Z,14.18
2023-04-26T08:37:02.129Z,14.67
2023-04-26T08:39:30.452Z,14.81
2023-04-26T08:42:05.982Z,14.53
2023-04-26T08:44:36.743Z,14.37
2023-04-26T08:47:11.565Z,14.55
2023-04-26T08:49:42.554Z,14.52
2023-04-26T08:52:13.806Z,14.86
2023-04-26T08:54:43.170Z,14.91
2023-04-26T08:57:11.594Z,13.95
2023-04-26T08:59:41.095Z,14.16
2023-04-26T09:02:17.284Z,14.65
2023-04-26T09:04:45.918Z,14.86
2023-04-26T09:07:22.177Z,15.01
2023-04-26T09:09:52.170Z,14.90
2023-04-26T09:12:21.639Z,14.72
2023-04-26T09:14:50.084Z,14.45
2023-04-26T09:17:28.665Z,14.45
2023-04-26T09:19:57.062Z,14.35
2023-04-26T09:22:37.379Z,13.61
2023-04-26T09:25:07.327Z,14.31
2023-04-26T09:27:38.145Z,13.94
2023-04-26T09:30:09.675Z,14.10
2023-04-26T09:32:50.205Z,14.03
2023-04-26T09:35:27.863Z,14.28
2023-04-26T09:38:05.989Z,14.65
2023-04-26T09:40:41.156Z,15.35
2023-04-26T09:43:12.095Z,15.18
2023-04-26T09:45:49.321Z,15.34
2023-04-26T09:48:21.393Z,15.62
2023-04-26T09:50:50.892Z,15.33
2023-04-26T09:53:34.737Z,15.61
2023-04-26T09:56:10.412Z,16.16
2023-04-26T09:58:39.892Z,16.75
2023-04-26T10:01:10.212Z,16.61
2023-04-26T10:03:39.765Z,16.39
2023-04-26T10:06:08.907Z,16.35
2023-04-26T10:08:38.778Z,16.04
2023-04-26T10:11:09.878Z,16.46
2023-04-26T10:13:38.608Z,17.05
2023-04-26T10:16:07.780Z,16.52
2023-04-26T10:18:36.068Z,16.48
2023-04-26T10:21:11.318Z,16.82
2023-04-26T10:23:42.308Z,17.16
2023-04-26T10:26:52.141Z,17.29
2023-04-26T10:29:20.748Z,16.62
2023-04-26T10:32:09.553Z,17.30
2023-04-26T10:34:39.083Z,16.94
2023-04-26T10:37:12.001Z,16.86
2023-04-26T10:39:43.047Z,16.54
2023-04-26T10:42:26.859Z,16.62
2023-04-26T10:44:56.907Z,16.73
2023-04-26T10:47:30.633Z,16.47
2023-04-26T10:50:07.401Z,16.79
2023-04-26T10:52:36.753Z,17.01
2023-04-26T10:55:08.122Z,17.32
2023-04-26T10:57:54.143Z,17.92
2023-04-26T11:00:30.886Z,16.91
2023-04-26T11:03:13.029Z,17.06
2023-04-26T11:05:54.533Z,17.16
2023-04-26T11:08:27.338Z,17.11
2023-04-26T11:11:10.286Z,17.78
2023-04-26T11:13:39.953Z,17.65
2023-04-26T11:16:10.154Z,17.57
2023-04-26T11:18:42.168Z,17.95
2023-04-26T11:21:11.070Z,18.26
2023-04-26T11:23:39.615Z,18.23
2023-04-26T11:26:10.485Z,18.28
2023-04-26T11:28:40.508Z,18.53
2023-04-26T11:31:09.613Z,18.28
2023-04-26T11:33:38.023Z,17.95
2023-04-26T11:36:07.918Z,18.28
2023-04-26T11:38:36.307Z,18.23
2023-04-26T11:41:05.499Z,18.16
2023-04-26T11:43:39.198Z,18.60
2023-04-26T11:46:10.139Z,18.74
2023-04-26T11:48:39.936Z,18.82
2023-04-26T11:51:12.035Z,18.36
2023-04-26T11:53:42.058Z,19.94
2023-04-26T11:56:17.981Z,19.52
2023-04-26T11:58:49.274Z,20.00
2023-04-26T12:01:24.792Z,19.75
2023-04-26T12:03:54.502Z,19.80
2023-04-26T12:06:28.596Z,19.58
2023-04-26T12:08:58.205Z,18.57
2023-04-26T12:11:27.213Z,18.89
2023-04-26T12:13:59.739Z,18.34
2023-04-26T12:16:28.067Z,18.69
2023-04-26T12:18:57.903Z,17.97
2023-04-26T12:21:30.289Z,17.59
2023-04-26T12:23:59.253Z,16.77
2023-04-26T12:26:44.448Z,16.17
2023-04-26T12:29:14.182Z,16.29
2023-04-26T12:31:42.776Z,16.55
2023-04-26T12:34:11.092Z,16.31
2023-04-26T12:36:42.270Z,15.51
2023-04-26T12:39:13.533Z,15.45
2023-04-26T12:41:42.208Z,15.38
2023-04-26T12:44:11.184Z,15.86
2023-04-26T12:47:06.769Z,16.65
2023-04-26T12:49:34.970Z,16.44
2023-04-26T12:52:03.691Z,16.76
2023-04-26T12:54:32.124Z,16.99
2023-04-26T12:57:00.622Z,16.83
2023-04-26T12:59:29.090Z,16.21
2023-04-26T13:01:58.966Z,16.65
2023-04-26T13:04:27.553Z,16.75
2023-04-26T13:06:56.150Z,16.21
2023-04-26T13:09:24.405Z,15.43
2023-04-26T13:11:52.745Z,15.47
2023-04-26T13:14:29.082Z,15.23
2023-04-26T13:16:58.840Z,14.03
2023-04-26T13:19:27.187Z,13.28
2023-04-26T13:21:55.486Z,13.98
2023-04-26T13:24:23.780Z,14.25
2023-04-26T13:26:52.091Z,14.01
2023-04-26T13:29:20.354Z,13.84
2023-04-26T13:31:48.769Z,13.21
2023-04-26T13:34:18.868Z,13.02
2023-04-26T13:36:48.451Z,13.29
2023-04-26T13:39:16.744Z,13.30
2023-04-26T13:41:45.160Z,13.18
2023-04-26T13:44:14.394Z,13.32
2023-04-26T13:46:43.015Z,12.96
2023-04-26T13:49:11.490Z,12.67
2023-04-26T13:51:41.905Z,12.66
2023-04-26T13:54:11.613Z,12.67
2023-04-26T13:56:39.956Z,12.73
2023-04-26T13:59:08.278Z,12.64
2023-04-26T14:01:37.246Z,12.48
2023-04-26T14:04:06.407Z,12.37
2023-04-26T14:06:35.999Z,12.49
2023-04-26T14:09:07.016Z,12.53
2023-04-26T14:11:35.347Z,12.37
2023-04-26T14:14:04.080Z,12.45
2023-04-26T14:16:32.421Z,12.47
2023-04-26T14:19:00.789Z,12.24
2023-04-26T14:21:29.109Z,12.53
2023-04-26T14:23:58.010Z,12.71
2023-04-26T14:26:27.805Z,12.36
2023-04-26T14:28:56.178Z,12.42
2023-04-26T14:31:26.285Z,12.70
2023-04-26T14:33:54.635Z,12.64
2023-04-26T14:36:22.900Z,12.86
2023-04-26T14:38:51.340Z,12.94
2023-04-26T14:41:20.504Z,12.93
2023-04-26T14:43:50.777Z,13.08
2023-04-26T14:46:19.115Z,13.15
2023-04-26T14:48:47.751Z,13.30
2023-04-26T14:51:16.202Z,12.98
2023-04-26T14:53:44.529Z,13.14
2023-04-26T14:56:13.013Z,13.40
2023-04-26T14:58:41.468Z,12.81
2023-04-26T15:01:11.217Z,12.48
2023-04-26T15:03:39.911Z,12.59
2023-04-26T15:06:10.066Z,11.89
2023-04-26T15:08:38.419Z,12.62
2023-04-26T15:11:06.825Z,12.73
2023-04-26T15:13:35.225Z,12.58
2023-04-26T15:16:07.338Z,12.40
2023-04-26T15:18:37.666Z,12.51
2023-04-26T15:21:06.034Z,13.01
2023-04-26T15:23:34.331Z,13.02
2023-04-26T15:26:03.539Z,13.11
2023-04-26T15:28:32.033Z,13.17
2023-04-26T15:31:03.968Z,13.18
2023-04-26T15:33:33.639Z,13.00
2023-04-26T15:36:03.324Z,12.90
2023-04-26T15:38:31.594Z,12.86
2023-04-26T15:40:59.973Z,12.93
2023-04-26T15:43:28.293Z,12.98
2023-04-26T15:45:56.891Z,12.63
2023-04-26T15:48:26.185Z,12.92
2023-04-26T15:50:56.928Z,12.45
2023-04-26T15:53:27.094Z,12.79
2023-04-26T15:55:55.409Z,12.73
2023-04-26T15:58:23.844Z,12.14
2023-04-26T16:00:52.276Z,12.07
2023-04-26T16:03:20.947Z,12.28
2023-04-26T16:05:49.422Z,12.35
2023-04-26T16:08:36.790Z,12.56
2023-04-26T16:11:10.014Z,12.86
2023-04-26T16:13:38.431Z,12.55
2023-04-26T16:16:09.210Z,12.46
2023-04-26T16:18:39.777Z,12.23
2023-04-26T16:21:10.082Z,12.15
2023-04-26T16:23:38.555Z,12.16
2023-04-26T16:26:07.270Z,11.76
2023-04-26T16:28:37.110Z,11.62
2023-04-26T16:31:06.335Z,11.59
2023-04-26T16:33:34.765Z,11.84
2023-04-26T16:36:03.268Z,12.04
2023-04-26T16:38:31.538Z,11.98
2023-04-26T16:41:01.874Z,12.51
2023-04-26T16:43:31.174Z,12.21
2023-04-26T16:46:01.963Z,11.71
2023-04-26T16:48:32.160Z,11.77
2023-04-26T16:51:01.008Z,11.59
2023-04-26T16:53:29.895Z,11.65
2023-04-26T16:55:58.711Z,11.78
2023-04-26T16:58:27.533Z,11.55
2023-04-26T17:00:55.893Z,12.07
2023-04-26T17:03:26.078Z,11.95
2023-04-26T17:05:54.685Z,11.68
2023-04-26T17:08:23.079Z,11.98
2023-04-26T17:10:52.018Z,12.02
2023-04-26T17:13:20.445Z,12.18
2023-04-26T17:15:48.934Z,11.93
2023-04-26T17:18:17.242Z,11.83
2023-04-26T17:20:48.513Z,11.52
2023-04-26T17:23:16.769Z,11.42
2023-04-26T17:25:45.127Z,11.68
2023-04-26T17:28:14.392Z,11.95
2023-04-26T17:30:42.670Z,11.79
2023-04-26T17:33:11.052Z,11.84
2023-04-26T17:35:39.452Z,12.17
2023-04-26T17:38:09.094Z,11.72
2023-04-26T17:40:37.417Z,11.83
2023-04-26T17:43:05.775Z,11.56
2023-04-26T17:45:34.173Z,12.06
2023-04-26T17:48:02.533Z,11.98
2023-04-26T17:50:31.237Z,11.75
2023-04-26T17:52:59.767Z,11.89
2023-04-26T17:55:29.429Z,11.78
2023-04-26T17:57:57.694Z,11.99
2023-04-26T18:00:26.118Z,11.76
2023-04-26T18:02:56.317Z,12.06
2023-04-26T18:05:25.129Z,11.68
2023-04-26T18:07:53.415Z,11.40
2023-04-26T18:10:22.067Z,12.00
2023-04-26T18:12:51.971Z,11.81
2023-04-26T18:15:20.295Z,11.70
2023-04-26T18:17:48.564Z,11.85
2023-04-26T18:20:16.973Z,11.75
2023-04-26T18:22:45.267Z,11.97
2023-04-26T18:25:13.494Z,11.89
2023-04-26T18:27:41.724Z,12.24
2023-04-26T18:30:12.957Z,12.05
2023-04-26T18:32:41.523Z,11.92
2023-04-26T18:35:10.475Z,11.71
2023-04-26T18:37:39.830Z,11.34
2023-04-26T18:40:09.531Z,11.17
2023-04-26T18:42:38.971Z,11.21
2023-04-26T18:45:08.687Z,11.16
2023-04-26T18:47:38.554Z,11.12
2023-04-26T18:50:07.959Z,11.14
2023-04-26T18:52:36.560Z,10.64
2023-04-26T18:55:05.495Z,11.26
2023-04-26T18:57:33.762Z,10.94
2023-04-26T19:00:02.147Z,11.42
2023-04-26T19:02:30.526Z,10.86
2023-04-26T19:05:01.471Z,10.71
2023-04-26T19:07:29.855Z,10.45
2023-04-26T19:10:00.665Z,10.84
2023-04-26T19:12:29.149Z,10.55
2023-04-26T19:14:57.460Z,10.87
2023-04-26T19:17:26.417Z,10.51
2023-04-26T19:19:55.458Z,10.43
2023-04-26T19:22:25.126Z,10.51
2023-04-26T19:24:53.303Z,10.98
2023-04-26T19:27:21.498Z,10.88
2023-04-26T19:29:49.792Z,11.10
2023-04-26T19:32:19.970Z,10.84
2023-04-26T19:34:48.352Z,11.45
2023-04-26T19:37:16.685Z,11.51
2023-04-26T19:39:46.383Z,11.31
2023-04-26T19:42:14.647Z,10.82
2023-04-26T19:44:42.896Z,10.67
2023-04-26T19:47:11.400Z,10.67
2023-04-26T19:49:39.801Z,10.98
2023-04-26T19:52:08.086Z,10.52
2023-04-26T19:54:37.623Z,10.44
2023-04-26T19:57:07.438Z,10.54
2023-04-26T19:59:35.737Z,9.37
2023-04-26T20:02:06.730Z,10.42
2023-04-26T20:04:35.198Z,10.33
2023-04-26T20:07:05.097Z,10.53
2023-04-26T20:09:34.806Z,10.47
2023-04-26T20:12:03.202Z,10.29
2023-04-26T20:14:33.806Z,11.02
2023-04-26T20:17:02.771Z,10.54
2023-04-26T20:19:31.153Z,10.05
2023-04-26T20:21:59.522Z,10.17
2023-04-26T20:24:29.256Z,10.22
2023-04-26T20:26:57.806Z,10.10
2023-04-26T20:29:26.251Z,10.29
2023-04-26T20:31:56.031Z,10.19
2023-04-26T20:34:24.506Z,10.29
2023-04-26T20:36:52.816Z,10.24
2023-04-26T20:39:21.984Z,10.40
2023-04-26T20:41:50.392Z,10.89
2023-04-26T20:44:18.811Z,9.78
2023-04-26T20:46:47.056Z,10.00
2023-04-26T20:49:16.771Z,10.02
2023-04-26T20:51:45.118Z,9.83
2023-04-26T20:54:13.452Z,9.62
2023-04-26T20:56:41.703Z,9.60
2023-04-26T20:59:10.432Z,8.93
2023-04-26T21:01:38.859Z,9.44
2023-04-26T21:04:07.264Z,9.42
2023-04-26T21:06:37.086Z,9.62
2023-04-26T21:09:05.532Z,9.35
2023-04-26T21:11:34.022Z,9.39
2023-04-26T21:14:02.327Z,9.39
2023-04-26T21:16:30.589Z,9.55
2023-04-26T21:18:58.886Z,9.57
2023-04-26T21:21:28.793Z,9.65
2023-04-26T21:23:58.509Z,9.81
2023-04-26T21:26:26.767Z,9.84
2023-04-26T21:28:55.076Z,9.02
2023-04-26T21:31:23.673Z,9.31
2023-04-26T21:33:52.084Z,8.69
2023-04-26T21:36:20.384Z,9.25
2023-04-26T21:38:48.668Z,9.42
2023-04-26T21:41:18.386Z,8.60
2023-04-26T21:43:46.677Z,9.43
2023-04-26T21:46:14.945Z,9.25
2023-04-26T21:48:43.482Z,8.65
2023-04-26T21:51:11.804Z,9.12
2023-04-26T21:53:40.074Z,8.92
2023-04-26T21:56:08.978Z,8.81
2023-04-26T21:58:38.669Z,8.80
2023-04-26T22:01:10.980Z,9.22
2023-04-26T22:03:39.919Z,9.44
2023-04-26T22:06:09.777Z,9.40
2023-04-26T22:08:38.863Z,9.05
2023-04-26T22:11:07.372Z,8.83
2023-04-26T22:13:35.931Z,9.24
2023-04-26T22:16:06.399Z,9.11
2023-04-26T22:18:35.511Z,8.73
2023-04-26T22:21:03.907Z,8.93
2023-04-26T22:23:32.335Z,8.55
2023-04-26T22:26:00.822Z,8.72
2023-04-26T22:28:29.036Z,8.57
2023-04-26T22:30:57.405Z,8.80
2023-04-26T22:33:27.137Z,8.56
2023-04-26T22:35:58.139Z,8.40
2023-04-26T22:38:26.671Z,8.38
2023-04-26T22:40:55.720Z,8.36
2023-04-26T22:43:24.116Z,8.33
2023-04-26T22:45:52.542Z,7.90
2023-04-26T22:48:20.864Z,8.20
2023-04-26T22:50:51.405Z,8.03
2023-04-26T22:53:19.702Z,8.24
2023-04-26T22:55:48.017Z,7.83
2023-04-26T22:58:17.373Z,8.28
2023-04-26T23:00:45.789Z,8.27
2023-04-26T23:03:14.093Z,8.26
2023-04-26T23:05:42.529Z,8.04
2023-04-26T23:08:12.225Z,8.18
2023-04-26T23:10:40.929Z,8.00
2023-04-26T23:13:09.167Z,8.00
2023-04-26T23:15:37.489Z,7.84
2023-04-26T23:18:05.863Z,7.79
2023-04-26T23:20:34.135Z,8.00
2023-04-26T23:23:02.358Z,7.83
2023-04-26T23:25:32.033Z,8.16
2023-04-26T23:28:00.366Z,8.15
2023-04-26T23:30:28.647Z,8.28
2023-04-26T23:32:56.991Z,8.37
2023-04-26T23:35:25.467Z,8.56
2023-04-26T23:37:53.722Z,8.66
2023-04-26T23:40:21.989Z,9.04
2023-04-26T23:42:51.658Z,9.10
2023-04-26T23:45:20.446Z,9.19
2023-04-26T23:47:48.678Z,9.20
2023-04-26T23:50:16.993Z,9.01
2023-04-26T23:52:45.215Z,9.03
2023-04-26T23:55:13.878Z,9.21
2023-04-26T23:57:42.202Z,9.13
